Time;durP1;ratioP1;P1;durP2;ratioP2;P2;SDS_P1;SDS_P2;PMS_P1;PMS_P2;Temp;Humidity;BMP_temperature;BMP_pressure;BME280_temperature;BME280_humidity;BME280_pressure;Samples;Min_cycle;Max_cycle;Signal;HPM_P1;HPM_P2
2021/04/07 00:01:54;;;;;;;2.85;2.38;;;;;;;;;;5093982;28;20229;-66
2021/04/07 00:04:21;;;;;;;5.70;3.45;;;;;;;;;;5093869;28;20714;-66
2021/04/07 00:06:49;;;;;;;9.13;3.38;;;;;;;;;;5093912;28;20279;-67
2021/04/07 00:09:16;;;;;;;11.73;2.97;;;;;;;;;;5094580;28;20225;-67
2021/04/07 00:11:43;;;;;;;4.40;2.80;;;;;;;;;;5093776;28;20283;-66
2021/04/07 00:14:11;;;;;;;8.25;2.38;;;;;;;;;;5093730;28;20571;-67
2021/04/07 00:16:38;;;;;;;5.70;2.88;;;;;;;;;;5093793;28;20289;-66
2021/04/07 00:19:06;;;;;;;3.40;2.45;;;;;;;;;;5094194;28;20232;-67
2021/04/07 00:21:33;;;;;;;2.40;2.20;;;;;;;;;;5093795;28;20193;-66
2021/04/07 00:24:01;;;;;;;6.15;2.38;;;;;;;;;;5094017;28;20307;-67
2021/04/07 00:26:28;;;;;;;5.40;2.78;;;;;;;;;;5094058;28;20228;-66
2021/04/07 00:28:54;;;;;;;3.05;2.60;;;;;;;;;;5093568;28;20193;-67
2021/04/07 00:31:21;;;;;;;6.55;2.92;;;;;;;;;;5093560;28;20283;-66
2021/04/07 00:33:48;;;;;;;7.38;3.28;;;;;;;;;;5093906;28;20225;-67
2021/04/07 00:36:14;;;;;;;6.65;3.13;;;;;;;;;;5094259;28;20617;-66
2021/04/07 00:38:41;;;;;;;6.07;2.95;;;;;;;;;;5093463;28;20286;-66
2021/04/07 00:41:09;;;;;;;2.78;2.58;;;;;;;;;;5093390;28;20285;-66
2021/04/07 00:43:35;;;;;;;4.50;2.92;;;;;;;;;;5093294;28;20289;-66
2021/04/07 00:46:02;;;;;;;8.13;3.50;;;;;;;;;;5093355;28;20310;-66
2021/04/07 00:48:29;;;;;;;3.45;2.90;;;;;;;;;;5093411;28;20659;-66
2021/04/07 00:50:56;;;;;;;14.77;4.32;;;;;;;;;;5093329;28;20280;-66
2021/04/07 00:53:22;;;;;;;12.15;2.88;;;;;;;;;;5094159;28;20197;-66
2021/04/07 00:55:49;;;;;;;3.97;2.55;;;;;;;;;;5093336;28;20237;-67
2021/04/07 00:58:17;;;;;;;3.40;2.40;;;;;;;;;;5093279;28;20288;-67
2021/04/07 01:00:44;;;;;;;11.48;3.35;;;;;;;;;;5093517;28;20643;-67
2021/04/07 01:03:13;;;;;;;3.92;3.05;;;;;;;;;;5093567;28;20197;-66
2021/04/07 01:05:40;;;;;;;3.70;2.63;;;;;;;;;;5093504;28;20228;-67
2021/04/07 01:08:07;;;;;;;4.82;2.60;;;;;;;;;;5093512;28;20288;-66
2021/04/07 01:10:34;;;;;;;6.32;3.10;;;;;;;;;;5093478;28;20280;-66
2021/04/07 01:13:01;;;;;;;5.93;2.88;;;;;;;;;;5093135;28;20277;-66
2021/04/07 01:15:29;;;;;;;7.00;2.95;;;;;;;;;;5093147;28;20288;-66
2021/04/07 01:17:57;;;;;;;6.88;3.05;;;;;;;;;;5093392;28;20276;-66
2021/04/07 01:20:24;;;;;;;11.85;3.78;;;;;;;;;;5093086;28;20232;-66
2021/04/07 01:22:52;;;;;;;7.03;2.72;;;;;;;;;;5093441;28;20626;-66
2021/04/07 01:25:20;;;;;;;3.00;2.15;;;;;;;;;;5094459;28;20310;-66
2021/04/07 01:27:46;;;;;;;7.50;3.20;;;;;;;;;;5096990;28;20651;-66
2021/04/07 01:30:15;;;;;;;8.43;2.58;;;;;;;;;;5097225;28;20229;-66
2021/04/07 01:32:42;;;;;;;6.60;2.80;;;;;;;;;;5097428;28;20654;-66
2021/04/07 01:35:09;;;;;;;7.28;2.72;;;;;;;;;;5097204;28;20239;-67
2021/04/07 01:37:37;;;;;;;8.93;3.40;;;;;;;;;;5097163;28;20284;-66
2021/04/07 01:40:06;;;;;;;9.20;4.35;;;;;;;;;;5097124;28;20228;-66
2021/04/07 01:42:35;;;;;;;10.65;2.78;;;;;;;;;;5097419;28;20636;-67
2021/04/07 01:45:03;;;;;;;11.40;4.18;;;;;;;;;;5097431;28;20273;-66
2021/04/07 01:47:30;;;;;;;9.82;2.95;;;;;;;;;;5096642;28;20229;-66
2021/04/07 01:49:58;;;;;;;2.63;2.33;;;;;;;;;;5096886;28;20289;-66
2021/04/07 01:52:24;;;;;;;5.80;2.67;;;;;;;;;;5097337;28;20192;-66
2021/04/07 01:54:51;;;;;;;7.38;2.92;;;;;;;;;;5097117;28;20635;-66
2021/04/07 01:57:18;;;;;;;4.10;3.40;;;;;;;;;;5096436;28;20288;-66
2021/04/07 01:59:45;;;;;;;15.82;5.00;;;;;;;;;;5096681;28;20281;-66
2021/04/07 02:02:12;;;;;;;8.88;2.92;;;;;;;;;;5096389;28;20204;-67
2021/04/07 02:04:39;;;;;;;9.55;3.10;;;;;;;;;;5096475;28;20308;-66
2021/04/07 02:07:09;;;;;;;6.03;3.03;;;;;;;;;;5096525;28;20233;-66
2021/04/07 02:09:36;;;;;;;7.30;3.22;;;;;;;;;;5096760;28;20608;-66
2021/04/07 02:12:03;;;;;;;6.03;3.00;;;;;;;;;;5096580;28;20607;-66
2021/04/07 02:14:29;;;;;;;6.38;4.80;;;;;;;;;;5096085;28;20226;-66
2021/04/07 02:16:57;;;;;;;7.43;3.67;;;;;;;;;;5097018;28;20335;-66
2021/04/07 02:19:25;;;;;;;8.40;3.92;;;;;;;;;;5096579;28;20246;-66
2021/04/07 02:21:55;;;;;;;8.65;4.07;;;;;;;;;;5096005;28;20654;-66
2021/04/07 02:24:21;;;;;;;7.53;3.55;;;;;;;;;;5096133;28;20218;-66
2021/04/07 02:26:48;;;;;;;8.35;2.95;;;;;;;;;;5095893;28;20280;-66
2021/04/07 02:29:15;;;;;;;16.33;4.22;;;;;;;;;;5096152;28;20287;-66
2021/04/07 02:31:42;;;;;;;13.18;4.30;;;;;;;;;;5096050;28;20255;-66
2021/04/07 02:34:09;;;;;;;5.15;3.60;;;;;;;;;;5095647;28;20741;-66
2021/04/07 02:36:36;;;;;;;9.63;3.60;;;;;;;;;;5095660;28;20283;-66
2021/04/07 02:39:03;;;;;;;14.30;3.47;;;;;;;;;;5096174;28;20201;-66
2021/04/07 02:41:30;;;;;;;12.00;5.70;;;;;;;;;;5095834;28;20243;-65
2021/04/07 02:43:56;;;;;;;6.43;3.63;;;;;;;;;;5095387;28;20320;-66
2021/04/07 02:46:23;;;;;;;10.13;3.80;;;;;;;;;;5095923;28;20225;-66
2021/04/07 02:48:50;;;;;;;10.07;5.03;;;;;;;;;;5096213;28;20197;-66
2021/04/07 02:51:17;;;;;;;13.13;6.25;;;;;;;;;;5095686;28;20190;-66
2021/04/07 02:53:44;;;;;;;8.90;3.90;;;;;;;;;;5095945;28;20287;-66
2021/04/07 02:56:11;;;;;;;13.82;5.30;;;;;;;;;;5095894;28;20212;-66
2021/04/07 02:58:38;;;;;;;10.63;6.05;;;;;;;;;;5095256;28;20234;-66
2021/04/07 03:01:04;;;;;;;9.93;4.40;;;;;;;;;;5095518;28;20287;-66
2021/04/07 03:03:31;;;;;;;7.28;4.72;;;;;;;;;;5095281;28;20290;-66
2021/04/07 03:05:58;;;;;;;8.10;4.78;;;;;;;;;;5095359;28;20221;-66
2021/04/07 03:08:25;;;;;;;6.05;3.78;;;;;;;;;;5095557;28;20726;-66
2021/04/07 03:10:52;;;;;;;13.23;5.90;;;;;;;;;;5095189;28;20623;-66
2021/04/07 03:13:19;;;;;;;9.10;5.10;;;;;;;;;;5095242;28;20288;-66
2021/04/07 03:15:45;;;;;;;9.80;4.90;;;;;;;;;;5095023;28;20301;-66
2021/04/07 03:18:12;;;;;;;8.82;5.32;;;;;;;;;;5095034;28;20232;-66
2021/04/07 03:20:39;;;;;;;11.20;4.85;;;;;;;;;;5095293;28;20674;-66
2021/04/07 03:23:06;;;;;;;5.70;4.35;;;;;;;;;;5095063;28;20190;-66
2021/04/07 03:25:33;;;;;;;13.13;4.80;;;;;;;;;;5094626;28;20312;-66
2021/04/07 03:28:00;;;;;;;7.00;5.05;;;;;;;;;;5094467;28;20809;-66
2021/04/07 03:30:27;;;;;;;15.40;4.25;;;;;;;;;;5095220;28;20713;-66
2021/04/07 03:32:54;;;;;;;7.75;4.85;;;;;;;;;;5094930;28;20284;-67
2021/04/07 03:35:20;;;;;;;7.00;4.30;;;;;;;;;;5094834;28;20289;-66
2021/04/07 03:37:47;;;;;;;10.50;3.95;;;;;;;;;;5094512;28;20663;-66
2021/04/07 03:40:14;;;;;;;12.38;5.00;;;;;;;;;;5094457;28;20237;-66
2021/04/07 03:42:43;;;;;;;6.43;3.42;;;;;;;;;;5094584;28;20260;-66
2021/04/07 03:45:10;;;;;;;6.50;3.10;;;;;;;;;;5094306;28;20221;-66
2021/04/07 03:47:36;;;;;;;10.60;4.90;;;;;;;;;;5094469;28;20232;-66
2021/04/07 03:50:04;;;;;;;15.90;4.30;;;;;;;;;;5094575;28;20696;-66
2021/04/07 03:52:30;;;;;;;9.20;4.50;;;;;;;;;;5094494;28;20300;-66
2021/04/07 03:54:58;;;;;;;12.60;4.43;;;;;;;;;;5095092;28;20205;-66
2021/04/07 03:57:27;;;;;;;8.32;4.03;;;;;;;;;;5094975;28;20229;-66
2021/04/07 03:59:55;;;;;;;19.55;4.22;;;;;;;;;;5094034;28;20278;-66
2021/04/07 04:02:21;;;;;;;13.20;3.95;;;;;;;;;;5095019;28;20287;-67
2021/04/07 04:04:48;;;;;;;10.27;3.75;;;;;;;;;;5095241;28;20304;-66
2021/04/07 04:07:15;;;;;;;6.55;3.33;;;;;;;;;;5093924;28;20280;-67
2021/04/07 04:09:41;;;;;;;8.93;3.55;;;;;;;;;;5094149;28;20276;-67
2021/04/07 04:12:09;;;;;;;6.53;3.65;;;;;;;;;;5093905;28;20284;-67
2021/04/07 04:14:37;;;;;;;7.57;5.00;;;;;;;;;;5094074;28;20197;-67
2021/04/07 04:17:05;;;;;;;6.47;4.10;;;;;;;;;;5094365;28;20198;-66
2021/04/07 04:19:31;;;;;;;13.95;4.47;;;;;;;;;;5093702;28;20288;-67
2021/04/07 04:21:58;;;;;;;6.60;4.75;;;;;;;;;;5094035;28;20288;-67
2021/04/07 04:24:25;;;;;;;9.38;4.32;;;;;;;;;;5093940;28;20303;-66
2021/04/07 04:26:51;;;;;;;8.73;3.75;;;;;;;;;;5093945;28;20276;-67
2021/04/07 04:29:18;;;;;;;6.90;4.45;;;;;;;;;;5093616;28;20192;-67
2021/04/07 04:31:45;;;;;;;10.63;4.75;;;;;;;;;;5093939;28;20225;-67
2021/04/07 04:34:12;;;;;;;13.77;5.00;;;;;;;;;;5093537;28;20205;-67
2021/04/07 04:36:39;;;;;;;6.90;5.25;;;;;;;;;;5094245;28;20659;-67
2021/04/07 04:39:06;;;;;;;9.43;5.07;;;;;;;;;;5093505;28;20818;-66
2021/04/07 04:41:33;;;;;;;11.27;5.95;;;;;;;;;;5093414;28;20239;-67
2021/04/07 04:44:00;;;;;;;8.23;4.90;;;;;;;;;;5093427;28;20251;-68
2021/04/07 04:46:26;;;;;;;8.82;4.40;;;;;;;;;;5093376;28;20233;-66
2021/04/07 04:48:53;;;;;;;5.78;3.45;;;;;;;;;;5093726;28;20276;-66
2021/04/07 04:51:20;;;;;;;9.48;5.57;;;;;;;;;;5093605;28;20628;-65
2021/04/07 04:53:47;;;;;;;22.60;5.65;;;;;;;;;;5093601;28;20788;-67
2021/04/07 04:56:14;;;;;;;6.57;3.55;;;;;;;;;;5094079;28;20225;-66
2021/04/07 04:58:41;;;;;;;6.95;4.57;;;;;;;;;;5089266;28;20280;-67
2021/04/07 05:01:09;;;;;;;10.43;4.90;;;;;;;;;;5088938;28;20212;-68
2021/04/07 05:03:36;;;;;;;13.13;4.97;;;;;;;;;;5097560;28;20288;-67
2021/04/07 05:06:03;;;;;;;12.50;4.57;;;;;;;;;;5097546;28;20283;-67
2021/04/07 05:08:30;;;;;;;7.32;4.75;;;;;;;;;;5097206;28;20229;-67
2021/04/07 05:10:57;;;;;;;11.73;4.28;;;;;;;;;;5097195;28;20288;-67
2021/04/07 05:13:24;;;;;;;7.30;4.50;;;;;;;;;;5097081;28;20205;-67
2021/04/07 05:15:51;;;;;;;14.45;4.60;;;;;;;;;;5097512;28;20283;-67
2021/04/07 05:18:19;;;;;;;11.50;5.18;;;;;;;;;;5097024;28;20198;-66
2021/04/07 05:20:46;;;;;;;9.60;5.82;;;;;;;;;;5096828;28;20193;-67
2021/04/07 05:23:12;;;;;;;8.32;5.75;;;;;;;;;;5097572;28;20193;-67
2021/04/07 05:25:40;;;;;;;10.15;6.22;;;;;;;;;;5097598;28;20270;-67
2021/04/07 05:28:08;;;;;;;8.50;5.35;;;;;;;;;;5092147;28;20247;-66
2021/04/07 05:33:16;;;;;;;8.05;5.40;;;;;;;;;;5076749;28;20551;-68
2021/04/07 05:35:43;;;;;;;7.15;5.18;;;;;;;;;;5076527;28;20289;-67
2021/04/07 05:38:09;;;;;;;8.48;5.50;;;;;;;;;;5076932;28;20265;-68
2021/04/07 05:40:36;;;;;;;8.65;5.75;;;;;;;;;;5076823;28;20194;-67
2021/04/07 05:43:04;;;;;;;8.63;5.13;;;;;;;;;;5075799;28;20567;-67
2021/04/07 05:45:31;;;;;;;5.30;4.80;;;;;;;;;;5076418;28;20591;-65
2021/04/07 05:47:57;;;;;;;6.70;5.05;;;;;;;;;;5076176;28;20237;-67
2021/04/07 05:50:24;;;;;;;20.02;6.72;;;;;;;;;;5076993;28;20623;-67
2021/04/07 05:52:56;;;;;;;9.40;7.38;;;;;;;;;;5076216;28;20744;-67
2021/04/07 05:55:23;;;;;;;5.05;4.50;;;;;;;;;;5076236;28;20278;-67
2021/04/07 05:57:56;;;;;;;6.95;5.95;;;;;;;;;;5076790;28;20194;-67
2021/04/07 06:00:24;;;;;;;13.73;7.85;;;;;;;;;;5076485;28;20277;-67
2021/04/07 06:02:54;;;;;;;9.80;7.65;;;;;;;;;;5075994;28;20241;-68
2021/04/07 06:05:21;;;;;;;10.02;7.13;;;;;;;;;;5081195;28;20575;-67
2021/04/07 06:07:48;;;;;;;13.90;7.93;;;;;;;;;;5095100;28;20280;-66
2021/04/07 06:10:15;;;;;;;12.27;7.40;;;;;;;;;;5096352;28;20351;-66
2021/04/07 06:12:42;;;;;;;11.57;7.13;;;;;;;;;;5096568;28;20269;-66
2021/04/07 06:15:09;;;;;;;13.93;8.02;;;;;;;;;;5096726;28;20562;-66
2021/04/07 06:17:38;;;;;;;12.25;6.93;;;;;;;;;;5096785;28;20647;-66
2021/04/07 06:20:06;;;;;;;9.05;7.70;;;;;;;;;;5096317;28;20193;-66
2021/04/07 06:22:33;;;;;;;6.80;6.10;;;;;;;;;;5096196;28;20281;-67
2021/04/07 06:25:00;;;;;;;10.32;7.72;;;;;;;;;;5096101;28;20255;-66
2021/04/07 06:27:27;;;;;;;10.23;8.15;;;;;;;;;;5096615;28;20633;-66
2021/04/07 06:29:54;;;;;;;11.52;8.85;;;;;;;;;;5096757;28;20287;-66
2021/04/07 06:32:21;;;;;;;13.68;8.50;;;;;;;;;;5095986;28;20718;-66
2021/04/07 06:34:48;;;;;;;12.77;9.02;;;;;;;;;;5084093;28;20230;-68
2021/04/07 06:37:15;;;;;;;17.33;10.75;;;;;;;;;;5075423;28;20240;-66
2021/04/07 06:39:42;;;;;;;13.90;8.70;;;;;;;;;;5075320;28;20241;-66
2021/04/07 06:42:09;;;;;;;15.30;10.45;;;;;;;;;;5075088;28;20248;-66
2021/04/07 06:44:35;;;;;;;15.80;8.30;;;;;;;;;;5075831;28;20216;-66
2021/04/07 06:47:05;;;;;;;12.35;8.77;;;;;;;;;;5075199;28;20229;-65
2021/04/07 06:49:33;;;;;;;13.52;9.07;;;;;;;;;;5075442;28;20253;-66
2021/04/07 06:52:02;;;;;;;12.95;8.00;;;;;;;;;;5075198;28;20664;-65
2021/04/07 06:54:29;;;;;;;12.02;7.90;;;;;;;;;;5075373;28;20209;-67
2021/04/07 06:56:56;;;;;;;9.00;6.25;;;;;;;;;;5075369;28;20289;-66
2021/04/07 06:59:23;;;;;;;13.68;8.10;;;;;;;;;;5074943;28;20285;-66
2021/04/07 07:01:50;;;;;;;9.90;7.70;;;;;;;;;;5074988;28;20237;-66
2021/04/07 07:04:18;;;;;;;11.90;7.93;;;;;;;;;;5074500;28;20301;-65
2021/04/07 07:06:46;;;;;;;11.93;7.22;;;;;;;;;;5075403;28;20640;-66
2021/04/07 07:09:17;;;;;;;10.82;8.20;;;;;;;;;;5074700;28;20232;-66
2021/04/07 07:11:45;;;;;;;10.75;7.63;;;;;;;;;;5075257;28;20183;-66
2021/04/07 07:14:13;;;;;;;11.27;7.57;;;;;;;;;;5074604;28;20292;-66
2021/04/07 07:16:43;;;;;;;13.15;8.55;;;;;;;;;;5075133;28;20232;-66
2021/04/07 07:19:10;;;;;;;9.35;7.53;;;;;;;;;;5075202;28;20248;-67
2021/04/07 07:21:36;;;;;;;12.75;9.25;;;;;;;;;;5074866;28;20230;-66
2021/04/07 07:24:03;;;;;;;10.73;7.90;;;;;;;;;;5073607;28;20282;-66
2021/04/07 07:26:40;;;;;;;11.27;7.20;;;;;;;;;;5074298;28;20229;-66
2021/04/07 07:29:09;;;;;;;10.50;7.95;;;;;;;;;;5074282;28;20235;-66
2021/04/07 07:31:35;;;;;;;7.15;5.65;;;;;;;;;;5074709;28;20222;-66
2021/04/07 07:34:04;;;;;;;6.97;5.70;;;;;;;;;;5073973;28;20198;-66
2021/04/07 07:36:31;;;;;;;13.73;7.70;;;;;;;;;;5074484;28;20230;-66
2021/04/07 07:38:58;;;;;;;8.63;7.65;;;;;;;;;;5074697;28;20201;-66
2021/04/07 07:41:29;;;;;;;11.15;8.65;;;;;;;;;;5074065;28;20708;-66
2021/04/07 07:43:56;;;;;;;9.05;6.38;;;;;;;;;;5074510;28;20616;-66
2021/04/07 07:46:27;;;;;;;12.43;8.65;;;;;;;;;;5073991;28;20285;-66
2021/04/07 07:48:54;;;;;;;7.97;6.45;;;;;;;;;;5074378;28;20558;-66
2021/04/07 07:51:21;;;;;;;8.18;6.93;;;;;;;;;;5074347;28;20190;-66
2021/04/07 07:53:49;;;;;;;14.20;7.85;;;;;;;;;;5074205;28;20613;-66
2021/04/07 07:56:17;;;;;;;10.23;7.63;;;;;;;;;;5073766;28;20201;-66
2021/04/07 07:58:44;;;;;;;11.18;7.55;;;;;;;;;;5073741;28;20229;-66
2021/04/07 08:01:14;;;;;;;9.13;6.85;;;;;;;;;;5073513;28;20201;-66
2021/04/07 08:03:41;;;;;;;9.73;6.80;;;;;;;;;;5073620;28;20190;-66
2021/04/07 08:06:08;;;;;;;8.60;6.38;;;;;;;;;;5073897;28;20235;-66
2021/04/07 08:08:34;;;;;;;9.98;6.38;;;;;;;;;;5073912;28;20602;-66
2021/04/07 08:11:03;;;;;;;11.27;7.93;;;;;;;;;;5073584;28;20233;-67
2021/04/07 08:13:32;;;;;;;9.23;6.78;;;;;;;;;;5073497;28;20225;-67
2021/04/07 08:15:59;;;;;;;7.00;5.50;;;;;;;;;;5073753;28;20201;-68
2021/04/07 08:18:27;;;;;;;8.02;6.32;;;;;;;;;;5073310;28;20198;-67
2021/04/07 08:20:54;;;;;;;7.13;6.07;;;;;;;;;;5074032;28;20252;-67
2021/04/07 08:23:23;;;;;;;8.55;5.40;;;;;;;;;;5073246;28;20264;-67
2021/04/07 08:25:53;;;;;;;7.65;5.18;;;;;;;;;;5073295;28;20214;-68
2021/04/07 08:28:21;;;;;;;5.75;4.75;;;;;;;;;;5073704;28;20224;-66
2021/04/07 08:30:48;;;;;;;7.15;4.65;;;;;;;;;;5073331;28;20739;-66
2021/04/07 08:33:18;;;;;;;6.05;5.45;;;;;;;;;;5073517;28;20194;-66
2021/04/07 08:35:46;;;;;;;6.47;5.80;;;;;;;;;;5073248;28;20206;-66
2021/04/07 08:38:12;;;;;;;9.23;5.30;;;;;;;;;;5073504;28;20206;-66
2021/04/07 08:40:41;;;;;;;5.40;4.75;;;;;;;;;;5073579;28;20679;-66
2021/04/07 08:43:08;;;;;;;6.05;5.45;;;;;;;;;;5073338;28;20229;-66
2021/04/07 08:45:41;;;;;;;6.40;5.28;;;;;;;;;;5073138;28;20642;-66
2021/04/07 08:48:12;;;;;;;9.15;5.70;;;;;;;;;;5073461;28;20559;-66
2021/04/07 08:50:39;;;;;;;7.57;6.13;;;;;;;;;;5073193;28;20190;-67
2021/04/07 08:53:13;;;;;;;5.90;5.28;;;;;;;;;;5073046;28;20290;-66
2021/04/07 08:55:42;;;;;;;4.45;3.65;;;;;;;;;;5073102;28;20197;-67
2021/04/07 08:58:10;;;;;;;7.47;5.78;;;;;;;;;;5073573;28;20198;-66
2021/04/07 09:00:37;;;;;;;8.00;5.38;;;;;;;;;;5073033;28;20198;-65
2021/04/07 09:03:09;;;;;;;12.07;6.28;;;;;;;;;;5073023;28;20288;-65
2021/04/07 09:05:37;;;;;;;6.95;6.25;;;;;;;;;;5073006;28;20210;-65
2021/04/07 09:08:05;;;;;;;6.70;5.03;;;;;;;;;;5073247;28;20198;-66
2021/04/07 09:10:40;;;;;;;8.90;6.18;;;;;;;;;;5072930;28;20269;-66
2021/04/07 09:13:08;;;;;;;15.40;6.93;;;;;;;;;;5073258;28;20204;-66
2021/04/07 09:15:35;;;;;;;8.85;6.50;;;;;;;;;;5073664;28;20202;-66
2021/04/07 09:18:01;;;;;;;8.57;7.45;;;;;;;;;;5073221;28;20324;-66
2021/04/07 09:20:41;;;;;;;10.25;7.22;;;;;;;;;;5073242;28;20723;-66
2021/04/07 09:23:18;;;;;;;10.82;7.50;;;;;;;;;;5073528;28;20592;-68
2021/04/07 09:25:47;;;;;;;9.35;8.00;;;;;;;;;;5072743;28;20241;-67
2021/04/07 09:28:14;;;;;;;8.50;7.18;;;;;;;;;;5072643;28;20248;-67
2021/04/07 09:30:46;;;;;;;13.00;6.25;;;;;;;;;;5072687;28;20696;-66
2021/04/07 09:33:15;;;;;;;6.32;5.43;;;;;;;;;;5072966;28;20194;-67
2021/04/07 09:35:58;;;;;;;10.52;6.38;;;;;;;;;;5072834;28;20198;-68
2021/04/07 09:38:25;;;;;;;7.38;6.28;;;;;;;;;;5073434;28;20541;-67
2021/04/07 09:41:03;;;;;;;9.63;6.80;;;;;;;;;;5073151;28;20194;-69
2021/04/07 09:43:31;;;;;;;5.85;4.65;;;;;;;;;;5072386;28;20232;-68
2021/04/07 09:45:58;;;;;;;5.55;5.05;;;;;;;;;;5074006;28;20218;-68
2021/04/07 09:48:34;;;;;;;7.60;5.22;;;;;;;;;;5076245;28;20694;-67
2021/04/07 09:51:01;;;;;;;15.77;6.70;;;;;;;;;;5076668;28;20640;-67
2021/04/07 09:53:28;;;;;;;7.22;5.40;;;;;;;;;;5076207;28;20733;-67
2021/04/07 09:56:01;;;;;;;5.85;5.00;;;;;;;;;;5076443;28;20202;-67
2021/04/07 09:58:28;;;;;;;15.60;5.25;;;;;;;;;;5076115;28;20286;-67
2021/04/07 10:00:55;;;;;;;4.40;4.00;;;;;;;;;;5076317;28;20348;-67
2021/04/07 10:03:22;;;;;;;10.38;4.43;;;;;;;;;;5076317;28;20194;-67
2021/04/07 10:05:49;;;;;;;12.82;5.40;;;;;;;;;;5075776;28;20257;-67
2021/04/07 10:08:16;;;;;;;10.13;5.18;;;;;;;;;;5076474;28;20284;-67
2021/04/07 10:10:43;;;;;;;11.68;4.95;;;;;;;;;;5076180;28;20229;-67
2021/04/07 10:13:10;;;;;;;4.05;3.20;;;;;;;;;;5075732;28;20234;-67
2021/04/07 10:15:38;;;;;;;11.15;5.72;;;;;;;;;;5075758;28;20248;-67
2021/04/07 10:18:08;;;;;;;6.35;4.38;;;;;;;;;;5076034;28;20198;-67
2021/04/07 10:20:36;;;;;;;6.97;5.45;;;;;;;;;;5076167;28;20214;-68
2021/04/07 10:23:07;;;;;;;4.70;3.13;;;;;;;;;;5076016;28;20229;-67
2021/04/07 10:25:34;;;;;;;3.42;2.60;;;;;;;;;;5075973;28;20217;-67
2021/04/07 10:28:02;;;;;;;6.78;3.10;;;;;;;;;;5075269;28;20199;-67
2021/04/07 10:30:35;;;;;;;5.72;2.70;;;;;;;;;;5075373;28;20281;-67
2021/04/07 10:33:04;;;;;;;6.18;4.20;;;;;;;;;;5075448;28;20278;-68
2021/04/07 10:35:31;;;;;;;10.48;2.85;;;;;;;;;;5075642;28;20546;-67
2021/04/07 10:37:59;;;;;;;11.18;3.20;;;;;;;;;;5075343;28;20210;-68
2021/04/07 10:40:26;;;;;;;5.85;2.85;;;;;;;;;;5075615;28;20226;-68
2021/04/07 10:42:53;;;;;;;9.00;3.70;;;;;;;;;;5074887;28;20701;-68
2021/04/07 10:45:21;;;;;;;14.65;4.05;;;;;;;;;;5075522;28;20290;-67
2021/04/07 10:47:48;;;;;;;4.88;3.65;;;;;;;;;;5075531;28;20199;-67
2021/04/07 10:50:16;;;;;;;4.35;2.40;;;;;;;;;;5075432;28;20624;-67
2021/04/07 10:52:44;;;;;;;4.55;2.60;;;;;;;;;;5075375;28;20309;-67
2021/04/07 10:55:12;;;;;;;6.70;3.40;;;;;;;;;;5075269;28;20238;-67
2021/04/07 10:57:39;;;;;;;4.35;2.88;;;;;;;;;;5074770;28;20230;-67
2021/04/07 11:00:09;;;;;;;7.40;2.60;;;;;;;;;;5075301;28;20194;-66
2021/04/07 11:02:46;;;;;;;4.05;2.42;;;;;;;;;;5075571;28;20198;-67
2021/04/07 11:05:14;;;;;;;7.03;3.15;;;;;;;;;;5075041;28;20267;-67
2021/04/07 11:07:42;;;;;;;4.50;2.80;;;;;;;;;;5074893;28;20625;-67
2021/04/07 11:10:09;;;;;;;8.10;2.75;;;;;;;;;;5074661;28;20198;-65
2021/04/07 11:12:37;;;;;;;3.30;2.08;;;;;;;;;;5075277;28;20225;-64
2021/04/07 11:15:04;;;;;;;3.65;1.85;;;;;;;;;;5075194;28;20647;-65
2021/04/07 11:17:31;;;;;;;2.17;1.90;;;;;;;;;;5074935;28;20675;-65
2021/04/07 11:19:57;;;;;;;5.22;1.95;;;;;;;;;;5075052;28;20612;-65
2021/04/07 11:22:24;;;;;;;2.50;1.38;;;;;;;;;;5074500;28;20195;-65
2021/04/07 11:24:53;;;;;;;4.63;1.75;;;;;;;;;;5074822;28;20699;-65
2021/04/07 11:27:19;;;;;;;2.92;1.42;;;;;;;;;;5074778;28;20298;-66
2021/04/07 11:29:46;;;;;;;2.88;2.03;;;;;;;;;;5074749;28;20198;-65
2021/04/07 11:32:14;;;;;;;4.50;1.80;;;;;;;;;;5074652;28;20203;-66
2021/04/07 11:34:47;;;;;;;4.25;1.70;;;;;;;;;;5074205;28;20293;-65
2021/04/07 11:37:23;;;;;;;1.40;1.30;;;;;;;;;;5074545;28;20204;-65
2021/04/07 11:39:53;;;;;;;2.38;1.30;;;;;;;;;;5074277;28;20219;-65
2021/04/07 11:42:23;;;;;;;2.40;1.75;;;;;;;;;;5074071;28;20191;-64
2021/04/07 11:44:50;;;;;;;5.40;1.58;;;;;;;;;;5074439;28;20206;-65
2021/04/07 11:47:17;;;;;;;3.28;1.30;;;;;;;;;;5074369;28;20198;-66
2021/04/07 11:49:44;;;;;;;5.57;2.28;;;;;;;;;;5074694;28;20640;-65
2021/04/07 11:52:13;;;;;;;5.07;2.17;;;;;;;;;;5075101;28;20289;-65
2021/04/07 11:54:40;;;;;;;4.45;2.20;;;;;;;;;;5075270;28;20202;-65
2021/04/07 11:57:07;;;;;;;8.32;2.92;;;;;;;;;;5074856;28;20201;-66
2021/04/07 11:59:35;;;;;;;6.68;2.90;;;;;;;;;;5074826;28;20195;-66
2021/04/07 12:02:01;;;;;;;9.65;2.00;;;;;;;;;;5075443;28;20260;-66
2021/04/07 12:04:30;;;;;;;5.47;2.00;;;;;;;;;;5075762;28;20190;-66
2021/04/07 12:06:56;;;;;;;6.30;3.17;;;;;;;;;;5074669;28;20703;-66
2021/04/07 12:09:23;;;;;;;10.50;2.45;;;;;;;;;;5074273;28;20276;-66
2021/04/07 12:11:50;;;;;;;4.88;2.35;;;;;;;;;;5074947;28;20241;-66
2021/04/07 12:14:17;;;;;;;9.43;2.60;;;;;;;;;;5073513;28;20288;-66
2021/04/07 12:16:45;;;;;;;15.20;2.70;;;;;;;;;;5074504;28;20199;-67
2021/04/07 12:19:12;;;;;;;8.77;2.53;;;;;;;;;;5075650;28;20225;-66
2021/04/07 12:21:40;;;;;;;13.05;2.53;;;;;;;;;;5074807;28;20193;-66
2021/04/07 12:24:07;;;;;;;5.68;2.72;;;;;;;;;;5075628;28;20197;-66
2021/04/07 12:26:34;;;;;;;10.30;2.80;;;;;;;;;;5075319;28;20261;-66
2021/04/07 12:29:00;;;;;;;5.93;2.28;;;;;;;;;;5075092;28;20231;-66
2021/04/07 12:31:27;;;;;;;4.32;2.25;;;;;;;;;;5074547;28;20284;-66
2021/04/07 12:33:56;;;;;;;8.10;2.33;;;;;;;;;;5074540;28;20248;-65
2021/04/07 12:36:25;;;;;;;13.90;2.10;;;;;;;;;;5073983;28;20670;-65
2021/04/07 12:38:52;;;;;;;6.95;2.15;;;;;;;;;;5073754;28;20191;-66
2021/04/07 12:41:23;;;;;;;7.68;2.25;;;;;;;;;;5074197;28;20649;-66
2021/04/07 12:43:50;;;;;;;10.35;4.28;;;;;;;;;;5074273;28;20226;-65
2021/04/07 12:46:17;;;;;;;3.67;2.25;;;;;;;;;;5073895;28;20254;-65
2021/04/07 12:48:47;;;;;;;7.00;2.30;;;;;;;;;;5073650;28;20205;-66
2021/04/07 12:51:14;;;;;;;12.88;4.25;;;;;;;;;;5074841;28;20179;-71
2021/04/07 12:53:41;;;;;;;13.75;2.58;;;;;;;;;;5073780;28;20202;-65
2021/04/07 12:56:10;;;;;;;10.10;3.40;;;;;;;;;;5073938;28;20255;-66
2021/04/07 12:58:37;;;;;;;8.38;4.68;;;;;;;;;;5082876;28;20250;-65
2021/04/07 13:01:03;;;;;;;6.63;1.85;;;;;;;;;;5073796;28;20207;-65
2021/04/07 13:03:30;;;;;;;11.57;2.35;;;;;;;;;;5073612;28;20237;-66
2021/04/07 13:05:57;;;;;;;12.70;3.13;;;;;;;;;;5073454;28;20264;-65
2021/04/07 13:08:25;;;;;;;14.65;3.25;;;;;;;;;;5073334;28;20279;-65
2021/04/07 13:10:51;;;;;;;8.02;1.95;;;;;;;;;;5072871;28;20202;-66
2021/04/07 13:13:18;;;;;;;3.63;2.28;;;;;;;;;;5073452;28;20203;-66
2021/04/07 13:15:45;;;;;;;7.38;2.35;;;;;;;;;;5073304;28;20289;-65
2021/04/07 13:18:12;;;;;;;5.13;1.63;;;;;;;;;;5073113;28;20228;-68
2021/04/07 13:20:38;;;;;;;5.38;1.75;;;;;;;;;;5074955;28;20191;-66
2021/04/07 13:23:05;;;;;;;7.32;2.22;;;;;;;;;;5077177;28;20201;-67
2021/04/07 13:25:33;;;;;;;8.23;1.50;;;;;;;;;;5076650;28;20214;-66
2021/04/07 13:28:00;;;;;;;4.75;2.30;;;;;;;;;;5077223;28;20190;-68
2021/04/07 13:30:31;;;;;;;5.43;2.25;;;;;;;;;;5077486;28;20225;-66
2021/04/07 13:33:02;;;;;;;5.85;1.45;;;;;;;;;;5077297;28;20188;-67
2021/04/07 13:35:40;;;;;;;2.38;1.48;;;;;;;;;;5076862;28;20182;-68
2021/04/07 13:38:12;;;;;;;2.75;2.28;;;;;;;;;;5076577;28;20210;-66
2021/04/07 13:40:57;;;;;;;11.30;2.45;;;;;;;;;;5076896;28;20269;-66
2021/04/07 13:43:24;;;;;;;5.45;2.00;;;;;;;;;;5076698;28;20224;-66
2021/04/07 13:45:51;;;;;;;6.60;2.42;;;;;;;;;;5076396;28;20270;-66
2021/04/07 13:48:20;;;;;;;6.50;1.83;;;;;;;;;;5076568;28;20721;-66
2021/04/07 13:50:47;;;;;;;5.30;3.10;;;;;;;;;;5076859;28;20279;-68
2021/04/07 13:53:17;;;;;;;5.15;3.13;;;;;;;;;;5076280;28;20229;-65
2021/04/07 13:55:46;;;;;;;7.53;2.35;;;;;;;;;;5076513;28;20206;-67
2021/04/07 13:58:13;;;;;;;5.75;2.45;;;;;;;;;;5076095;28;20194;-68
2021/04/07 14:00:42;;;;;;;8.82;2.20;;;;;;;;;;5077231;28;20190;-67
2021/04/07 14:03:08;;;;;;;3.40;1.50;;;;;;;;;;5076125;28;20283;-66
2021/04/07 14:05:35;;;;;;;5.50;2.80;;;;;;;;;;5077026;28;20261;-66
2021/04/07 14:08:03;;;;;;;10.55;2.60;;;;;;;;;;5076270;28;20281;-66
2021/04/07 14:10:30;;;;;;;6.78;2.55;;;;;;;;;;5075937;28;20247;-65
2021/04/07 14:12:59;;;;;;;7.28;2.25;;;;;;;;;;5075927;28;20236;-65
2021/04/07 14:15:25;;;;;;;5.93;2.00;;;;;;;;;;5075907;28;20238;-66
2021/04/07 14:17:53;;;;;;;11.25;3.35;;;;;;;;;;5076098;28;20296;-65
2021/04/07 14:20:20;;;;;;;10.35;2.08;;;;;;;;;;5076821;28;20601;-66
2021/04/07 14:22:47;;;;;;;9.73;2.45;;;;;;;;;;5076936;28;20203;-65
2021/04/07 14:25:14;;;;;;;3.60;1.83;;;;;;;;;;5075974;28;20305;-65
2021/04/07 14:27:42;;;;;;;1.85;1.63;;;;;;;;;;5075617;28;20210;-68
2021/04/07 14:30:11;;;;;;;6.78;1.95;;;;;;;;;;5075619;28;20200;-66
2021/04/07 14:32:38;;;;;;;4.32;2.10;;;;;;;;;;5075270;28;20615;-65
2021/04/07 14:35:06;;;;;;;5.03;3.10;;;;;;;;;;5075431;28;20213;-66
2021/04/07 14:37:33;;;;;;;15.35;2.20;;;;;;;;;;5075845;28;20222;-66
2021/04/07 14:39:59;;;;;;;6.68;3.00;;;;;;;;;;5075664;28;20606;-66
2021/04/07 14:42:26;;;;;;;9.65;1.92;;;;;;;;;;5075708;28;20227;-66
2021/04/07 14:44:53;;;;;;;4.05;1.90;;;;;;;;;;5075526;28;20282;-66